• Join FlightAware (Why Join?)
  • Login
  • US Flag 
02:44AM EDT


 

Airport Tracker/Info


-or-


 

Live Flight TrackerFlight Track Log ✈ UAL4543 ✈ 19-May-2013 ✈ KRDU - KEWR

Flight Track Log - Related Links

Times and Time Zones

All times are in EDT time to prevent confusion due to time zone crossing. See the UAL4543 flight status page for this flight to view local times or setup timezone preferences in your user account.

Time Position Orientation Groundspeed Altitude Reporting Facility
EDT Latitude Longitude Course Direction KTS MPH feet Rate Location/Type
03:40PM 35.8686 -78.8139 11° North 159 183 1,300  Level Washington Center
03:40PM 35.8556 -78.8286 222° Southwest 171 197 1,900 1,800 Climbing Washington Center
03:41PM 35.8272 -78.8814 237° Southwest 210 242 3,800 1,740 Climbing Washington Center
03:42PM 35.8906 -78.9278 329° Northwest 276 318 6,000 2,100 Climbing Washington Center
03:43PM 36.1954 -78.6568 19° North  Level FlightAware Approximate
03:43PM 35.9628 -78.8844 26° Northeast 281 323 8,400  Level Washington Center
03:44PM 36.2780 -78.6240 15° North  Level FlightAware Approximate
03:44PM 36.0369 -78.8386 27° Northeast 284 327 10,500  Level Washington Center
03:45PM 36.3619 -78.5970 11° North  Level FlightAware Approximate
03:45PM 36.1175 -78.7881 27° Northeast 296 341 11,300  Level Washington Center
03:46PM 36.2111 -78.7250 29° Northeast 339 390 12,800 1,380 Climbing Washington Center
03:47PM 36.3022 -78.6667 27° Northeast 362 417 14,200 1,320 Climbing Washington Center
03:48PM 36.3894 -78.6083 28° Northeast 362 417 15,500 1,080 Climbing Washington Center
03:49PM 36.4822 -78.5706 18° North 362 417 16,400 1,020 Climbing Washington Center
03:50PM 36.5831 -78.5331 17° North 368 423 17,600 1,140 Climbing Washington Center
03:51PM 36.6842 -78.4928 18° North 373 429 18,800 1,380 Climbing Washington Center
03:52PM 36.7900 -78.4397 22° Northeast 373 429 20,500 1,620 Climbing Washington Center
03:53PM 36.8772 -78.3675 34° Northeast 368 423 22,000 1,500 Climbing Washington Center
03:54PM 36.9664 -78.2928 34° Northeast 373 429 23,500 1,380 Climbing Washington Center
03:55PM 37.0533 -78.2256 32° Northeast 373 429 24,900 1,140 Climbing Washington Center
03:56PM 37.1322 -78.1578 34° Northeast 381 438 25,800 960 Climbing Washington Center
03:57PM 37.2319 -78.0778 33° Northeast 381 438 26,900 960 Climbing Washington Center
03:58PM 37.3231 -78.0025 33° Northeast 381 438 27,800 960 Climbing Washington Center
03:59PM 37.4144 -77.9242 34° Northeast 381 438 28,900 540 Climbing Washington Center
04:00PM 37.5075 -77.8458 34° Northeast 381 438 29,000  Climbing Washington Center
04:01PM 37.5967 -77.7672 35° Northeast 381 438 29,000  Level Washington Center
04:02PM 37.6900 -77.6833 35° Northeast 393 452 29,000  Level Washington Center
04:03PM 37.7853 -77.5967 36° Northeast 404 465 29,000  Level Washington Center
04:04PM 37.8847 -77.5044 36° Northeast 424 488 29,000  Level Washington Center
04:05PM 37.9822 -77.4069 38° Northeast 435 501 29,000  Level Washington Center
04:06PM 38.0694 -77.2956 45° Northeast 441 507 29,000  Level Washington Center
04:07PM 38.1564 -77.1814 46° Northeast 441 507 29,000  Level Washington Center
04:08PM 38.2456 -77.0617 46° Northeast 453 521 29,000  Level Washington Center
04:09PM 38.3386 -76.9575 41° Northeast 448 516 29,000  Level Washington Center
04:10PM 38.4417 -76.8642 35° Northeast 443 510 29,000  Level Washington Center
04:11PM 38.5450 -76.7650 37° Northeast 453 521 29,000  Level Washington Center
04:12PM 38.6481 -76.6708 36° Northeast 453 521 29,000  Level Washington Center
04:13PM 38.7425 -76.5792 37° Northeast 445 512 29,000  Level Washington Center
04:14PM 38.8392 -76.4950 34° Northeast 426 490 29,000  Level Washington Center
04:15PM 38.9336 -76.4056 36° Northeast 421 484 29,000  Level Washington Center
04:16PM 39.0278 -76.3158 36° Northeast 421 484 29,000 -360 Level Washington Center
04:17PM 39.1242 -76.2283 35° Northeast 421 484 28,400 -900 Descending Washington Center
04:18PM 39.2142 -76.1461 35° Northeast 427 491 27,300 -720 Descending Washington Center
04:19PM 39.3042 -76.0528 39° Northeast 427 491 27,000 -240 Descending Washington Center
04:20PM 39.3900 -75.9514 42° Northeast 420 483 26,900 -60 Descending Washington Center
04:21PM 39.4778 -75.8497 42° Northeast 420 483 26,900 -900 Level Washington Center
04:22PM 39.5633 -75.7503 42° Northeast 414 476 25,200 -1,800 Descending Washington Center
04:23PM 39.6428 -75.6508 44° Northeast 401 461 23,300 -1,920 Descending Washington Center
04:24PM 39.7219 -75.5564 43° Northeast 395 455 21,400 -1,980 Descending Washington Center
04:25PM 39.8053 -75.4564 43° Northeast 380 437 19,400 -1,980 Descending Washington Center
04:26PM 39.8800 -75.3644 43° Northeast 374 430 17,500 -2,040 Descending Washington Center
04:27PM 39.9528 -75.2803 42° Northeast 362 417 15,400 -1,920 Descending Washington Center
04:28PM 40.0169 -75.1986 44° Northeast 340 391 13,800 -1,740 Descending Washington Center
04:29PM 40.0814 -75.1197 43° Northeast 322 371 11,900 -1,440 Descending Washington Center
04:31PM 40.2000 -74.9833 41° Northeast 293 337 9,800 -1,200 Descending New York TRACON
04:32PM 40.2500 -74.9167 45° Northeast 294 338 8,600 -1,020 Descending New York TRACON
04:34PM 40.3333 -74.7500 57° Northeast 270 311 6,900 -840 Descending New York TRACON
04:35PM 40.3667 -74.6667 62° Northeast 266 306 6,100 -420 Descending New York TRACON
04:36PM 40.4000 -74.5833 62° Northeast 259 298 6,100 -60 Level New York TRACON
04:37PM 40.4667 -74.5667 11° North 258 297 6,000 -60 Descending New York TRACON
04:38PM 40.5500 -74.5833 351° North 256 295 6,000  Level New York TRACON
04:39PM 40.6167 -74.5833 360° North 259 298 6,000  Level New York TRACON
04:40PM 40.6833 -74.5833 360° North 266 306 6,000  Level New York TRACON
04:41PM 40.7667 -74.6000 351° North 264 304 6,000 -60 Level New York TRACON
04:42PM 40.8333 -74.5833 11° North 240 276 5,900 -300 Descending New York TRACON
04:44PM 40.7757 -74.4129 123° Southeast  Level Estimated
04:45PM 41.0000 -74.4833 123° Southeast 236 272 5,000  Level New York TRACON
04:46PM 41.0167 -74.4000 75° East 235 270 5,000  Level New York TRACON
04:47PM 41.0167 -74.3333 90° East 220 253 5,000 -300 Level New York TRACON
04:48PM 41.0000 -74.2500 105° East 206 237 4,500 -540 Descending New York TRACON
04:49PM 40.9833 -74.1833 108° East 187 215 4,000 -300 Descending New York TRACON
04:50PM 40.9667 -74.1333 114° Southeast 162 186 4,000 -240 Level New York TRACON
04:51PM 40.9333 -74.1000 143° Southeast 158 182 3,600 -420 Descending New York TRACON
04:53PM 40.8500 -74.1000 180° South 149 171 2,800 -420 Descending New York TRACON